Julien, Iowa
Current Conditions -  °F | °C
As of 4:53 AM on Sunday 23 Nov 2014 (Local Time) from KDBQ Reporting Station
Haze Haze  
Wind Chill: 42°   Ceiling: 200
Heat Index: 48°   Visibility: 1.7mi
Dew Point: 48°   Wind: 17mph
Humidity: 100%   Direction: 190°S
Pressure: 29.63"   Gusts: NA
Location:  42.549°N, 90.6988°W
Report Text: KDBQ 231053Z AUTO 19015KT 1 3/4SM BR OVC002 09/09 A2963 RMK AO2 SLP039 T00890089 $
Loading
Personal Weather Stations






























Interactive Weather Map New forecast layout! Learn more

10-Day Weather Forecast

Advertisements
Track Severe Weather on mobile